Create Custom Reports and Graphics: Custom Report

Latest Observations

Map

15 Minute Data

Southern Napa County

Map

15 Minute Data

Northeast Napa County

10 Stations

15 Minute Data | America/Los_Angeles
as of 11/28/22 6:27 AM PST
Station Date Time Temp (°F) RH (%) Dew Pt (°F) Wind Spd (mph) Wind Dir (°) Wind Gust (mph) Latest Rain (In) Daily Rain (In) Daily Min Temp (°F) Yest MaxT (°F)
Montesol 11/28/22 0615 46.5   7.3 - - - - - - - 39.2   2.8 63.8   0.6
Pope Valley (Weeks Lake) 11/28/22 0615 36.3   11.8 91   2 33.9   11.1 1.7   1.2 NW | 312 4.6   2.6 0.00 0.00 30.3   6.2 70.8   0.7
Whiskey River Winery 11/28/22 0615 33.6   9.4 92   2 31.5   8.9 1.0   0.1 NNW | 328 4.6   3.1 0.00 0.00 28.7   5.0 68.5   1.6
Dollarhide Base 11/28/22 0615 48.3   15.9 69   26 38.8   7.5 1.4   1.4 N | 2 5.7   4.8 0.00 0.00 35.6   4.7 70.7   0.9
Dollarhide 1AS Remote 11/28/22 0615 30.4   6.7 95   0 29.2   6.6 1.0   0.1 NE | 55 3.2   1.3 - - 29.1   6.0 -
Dollarhide 17B Remote 11/27/22 1815 49.9   0.0 61   8 37.2   3.7 - - - - - 27.1   5.1 -
Dollarhide 18A Remote 11/28/22 0615 29.0   6.6 96   1 28.1   6.8 - - - - - 27.7   5.6 -
Angwin 11/28/22 0615 46.7   7.1 59   31 33.1   12.0 0.0   0.0 N | 0 0.0   0.0 0.00 0.00 46.1   5.0 61.2   0.4
Lower Chiles Valley (Brown) 11/28/22 0615 44.6   17.0 77   15 37.8   12.1 4.9   4.6 SSW | 200 10.6   9.2 0.00 0.00 30.2   3.5 68.5   0.0
Moss Creek Vineyard/Reservior 11/28/22 0615 36.6   3.5 87   3 33.0   2.4 - - - 0.00 0.00 34.0   2.2 70.7   1.9
Max     48.3 96 38.8 4.9 - 10.6 0.00 0.00 46.1 70.8
Avg     39.1 83 33.2 1.7 - 4.8 0.00 - - -
Min     29.0 59 28.1 0.0 - 0.0 0.00 0.00 27.7 61.2

Northern & Central Napa County

17 Stations

15 Minute Data | America/Los_Angeles
as of 11/28/22 6:27 AM PST
Station Date Time Temp (°F) RH (%) Dew Pt (°F) Wind Spd (mph) Wind Dir (°) Wind Gust (mph) Latest Rain (In) Daily Rain (In) Daily Min Temp (°F) Daily Max Temp (°F)
Calistoga-North 11/28/22 0615 37.1   5.0 95   1 35.7   4.7 - - - 0.00 0.00 35.5   4.2 41.6   3.5
St. Helena-North 11/28/22 0615 39.8   6.9 86   6 36.1   5.2 0.6   0.8 NW | 305 2.2   0.2 0.00 0.00 39.6   6.8 45.4   7.1
Rutherford Hill Estate 11/28/22 0615 48.9   4.6 70   13 39.4   9.6 2.6   1.6 N | 349 6.4   3.5 0.00 0.00 46.5   3.4 50.7   0.1
Rutherford-North (Mee Ln) 11/28/22 0615 43.4   11.3 87   6 39.8   9.4 2.0   0.1 NNW | 332 3.5   0.4 0.00 0.00 33.2   3.2 44.4   4.9
Rutherford (STS) 11/28/22 0615 36.8   5.1 96   2 35.7   4.6 2.3   1.4 SW | 215 3.8   1.9 0.00 0.00 34.3   4.9 42.7   3.8
Oakville-NE (Ranch 88) 11/28/22 0615 32.6   7.5 91   2 30.4   7.9 0.7   0.7 WSW | 254 3.3   3.3 0.00 0.00 29.5   4.9 33.4   2.1
To Kalon 11/28/22 0600 37.8   6.4 92   3 35.7   5.6 1.6   0.9 SW | 228 2.8   0.5 0.00 0.00 36.0   5.4 40.4   0.8
Yountville (Ranch 67) 11/28/22 0615 31.4   3.2 93   0 29.5   3.2 0.3   0.1 NNW | 328 2.3   1.2 0.00 0.00 30.8   3.3 34.5   1.2
Stags Leap Dist (Silverado Vineyards) 11/28/22 0615 33.3   1.3 92   0 31.2   1.3 0.3   0.0 NNE | 27 1.5   0.5 0.00 0.00 32.9   2.6 36.8   0.3
Borreo (Soda Canyon) 11/28/22 0615 37.4   0.8 92   12 35.2   4.4 0.9   0.6 SE | 142 2.8   0.4 0.00 0.00 35.8   0.4 39.5   3.1
Wappo Hill 11/28/22 0600 31.5   2.6 94   0 30.0   2.6 0.7   0.4 NW | 317 2.3   0.2 0.00 0.00 31.4   2.9 35.5   1.1
Stags Leap Dist (Chimney Rock) 11/28/22 0615 32.3   3.5 94   1 30.6   3.9 0.9   0.6 SSE | 168 3.1   2.0 0.00 0.00 30.1   1.8 35.3   0.1
Yountville-South (Ranch 87) 11/28/22 0615 31.1   0.2 96   1 30.2   0.6 0.5   0.6 SE | 127 2.8   0.4 0.00 0.00 30.6   2.7 35.2   0.3
Yountville-SE (Ranch 85) 11/28/22 0615 31.7   2.3 94   0 30.2   2.3 1.1   1.1 W | 281 3.8   3.8 0.00 0.00 31.2   2.0 35.2   0.2
Oak Knoll-East (Ranch 53) 11/12/22 0915 51.2   4.5 73   5 43.0   2.8 1.3   1.4 NNE | 19 3.2   2.1 0.00 0.00 34.0   3.1 51.6   3.9
Napa-NW (Ranch 54) 11/28/22 0615 34.8   1.9 94   1 33.2   2.1 0.5   0.2 SW | 222 2.0   0.7 0.00 0.00 33.3   2.8 37.0   0.4
Napa-North (Ranch 29) 11/28/22 0615 32.3   3.5 100   4 32.2   4.6 0.4   0.1 NE | 55 1.5   0.1 0.00 0.00 30.5   2.0 35.6   1.5
Max     48.9 100 39.8 2.6 - 6.4 0.00 0.00 46.5 50.7
Avg     35.8 92 33.5 1.0 - 2.9 0.00 - - -
Min     31.1 70 29.5 0.3 - 1.5 0.00 0.00 29.5 33.4

Southern Napa County

19 Stations

15 Minute Data | America/Los_Angeles
as of 11/28/22 6:27 AM PST
Station Date Time Temp (°F) RH (%) Dew Pt (°F) Wind Spd (mph) Wind Dir (°) Wind Gust (mph) Latest Rain (In) Daily Rain (In) Daily Min Temp (°F) Daily Max Temp (°F)
Mt. Veeder 11/28/22 0615 49.0   7.5 63   34 37.1   12.0 2.1   1.3 WNW | 289 9.1   7.0 0.00 0.00 48.6   5.0 53.7   3.0
Mount George (Napa East) 11/28/22 0615 35.2   4.3 96   0 34.1   4.3 0.4   0.8 ESE | 123 1.4   0.7 0.00 0.00 34.7   4.0 38.3   0.1
Napa-East (Palmaz 300') 11/28/22 0615 38.6   4.8 89   4 35.6   3.6 0.4   0.6 SE | 146 1.3   0.6 0.00 0.00 37.6   3.9 41.9   1.5
Napa-East (Palmaz 1200') 11/28/22 0615 40.7   0.1 84   15 36.2   4.9 0.8   3.0 E | 79 3.1   1.8 - - 38.7   0.5 50.7   8.3
Napa-East (Palmaz 1400') 11/28/22 0615 47.7   9.7 68   10 37.6   6.1 4.6   2.4 W | 272 9.9   7.1 0.00 0.00 42.4   5.2 52.7   9.5
Wooden Valley 11/28/22 0615 36.2   8.2 88   5 32.9   6.6 0.5   0.1 ENE | 62 2.0   0.3 0.00 0.00 35.9   8.1 49.9   15.2
Napa-West Upper (Truchard) 11/28/22 0615 43.4   0.7 79   15 37.4   4.6 1.4   0.2 ENE | 58 3.6   0.2 0.00 0.00 41.9   0.0 45.9   2.2
Napa-West Lower (Truchard) 11/28/22 0615 35.4   2.8 94   3 34.0   3.7 - - - - - 32.9   1.1 37.0   1.2
Napa-South (Toyon Farms) 11/28/22 0615 39.5   3.0 91   5 37.0   4.3 2.4   1.7 NE | 40 5.1   2.3 0.00 0.00 37.8   1.7 41.3   1.1
Toyon Remote 1 11/28/22 0615 35.0   2.6 - - - - - - - 32.8   1.7 36.7   0.7
Toyon Remote 2 11/28/22 0615 36.2   1.3 - - - - - - - 32.6   0.9 40.2   0.0
Toyon Remote 3 11/28/22 0615 34.3   4.7 - - - - - - - 32.1   2.9 35.3   0.6
Carneros (Saintsbury) 11/28/22 0615 37.1   1.4 93   5 35.2   2.7 1.7   0.2 NNW | 330 4.9   1.0 0.00 0.00 35.9   1.4 40.2   0.0
Suscol Lower (Ranch 35) 11/28/22 0615 38.0   3.4 95   6 36.7   5.0 1.9   0.6 ENE | 73 4.2   0.9 0.00 0.00 34.0   0.5 39.9   0.4
Suscol Mtn (Ranch 93) 11/28/22 0615 45.5   7.3 72   23 36.9   2.8 7.5   4.4 NW | 313 12.1   6.7 0.00 0.00 45.0   5.7 50.3   8.1
Suscol Upper (Ranch 92) 11/28/22 0615 45.8   5.7 72   18 37.3   2.0 4.4   3.0 WNW | 290 7.4   4.2 0.00 0.00 45.7   4.2 49.6   6.3
Stanly (Ranch 45) 11/28/22 0615 35.8   0.2 93   5 33.9   1.3 1.7   0.6 N | 356 3.3   0.0 0.00 0.00 34.2   1.1 39.7   0.9
Carneros Upper (Ranch 81) 11/28/22 0615 49.2   3.1 69   4 39.4   4.7 11.1   7.9 WNW | 293 18.4   13.3 0.00 0.00 44.6   0.7 49.9   2.4
Carneros Lower (Ranch 81) 11/28/22 0615 35.3   1.4 94   2 33.9   2.0 1.2   0.9 NW | 309 4.8   2.6 0.00 0.00 33.4   1.9 41.2   1.0
Max     49.2 96 39.4 11.1 - 18.4 0.00 0.00 48.6 53.7
Avg     39.9 84 35.9 2.8 - 6.0 0.00 - - -
Min     34.3 63 32.9 0.4 - 1.3 0.00 0.00 32.1 35.3

Latest Observations

Map

Hourly Data